sensor_id;sensor_type;location;lat;lon;timestamp;temperature;humidity
32524;DHT22;18965;52.242;20.886;2023-03-12T00:00:46;1.20;75.70
32524;DHT22;18965;52.242;20.886;2023-03-12T00:03:12;1.30;75.70
32524;DHT22;18965;52.242;20.886;2023-03-12T00:05:39;1.20;75.90
32524;DHT22;18965;52.242;20.886;2023-03-12T00:08:06;1.20;75.70
32524;DHT22;18965;52.242;20.886;2023-03-12T00:10:32;1.20;75.80
32524;DHT22;18965;52.242;20.886;2023-03-12T00:12:57;1.20;76.00
32524;DHT22;18965;52.242;20.886;2023-03-12T00:15:23;1.20;76.00
32524;DHT22;18965;52.242;20.886;2023-03-12T00:17:49;1.20;76.20
32524;DHT22;18965;52.242;20.886;2023-03-12T00:20:15;1.10;76.30
32524;DHT22;18965;52.242;20.886;2023-03-12T00:22:41;1.20;76.70
32524;DHT22;18965;52.242;20.886;2023-03-12T00:25:11;1.10;76.60
32524;DHT22;18965;52.242;20.886;2023-03-12T00:27:38;1.20;76.80
32524;DHT22;18965;52.242;20.886;2023-03-12T00:30:05;1.20;76.80
32524;DHT22;18965;52.242;20.886;2023-03-12T00:32:34;1.20;76.90
32524;DHT22;18965;52.242;20.886;2023-03-12T00:35:00;1.20;76.80
32524;DHT22;18965;52.242;20.886;2023-03-12T00:37:26;1.20;76.90
32524;DHT22;18965;52.242;20.886;2023-03-12T00:39:52;1.20;77.00
32524;DHT22;18965;52.242;20.886;2023-03-12T00:42:18;1.20;77.10
32524;DHT22;18965;52.242;20.886;2023-03-12T00:44:44;1.20;77.20
32524;DHT22;18965;52.242;20.886;2023-03-12T00:47:10;1.20;77.30
32524;DHT22;18965;52.242;20.886;2023-03-12T00:49:36;1.20;77.30
32524;DHT22;18965;52.242;20.886;2023-03-12T00:52:03;1.20;77.40
32524;DHT22;18965;52.242;20.886;2023-03-12T00:54:29;1.20;77.50
32524;DHT22;18965;52.242;20.886;2023-03-12T00:56:54;1.20;77.50
32524;DHT22;18965;52.242;20.886;2023-03-12T00:59:20;1.20;77.60
32524;DHT22;18965;52.242;20.886;2023-03-12T01:01:46;1.20;77.80
32524;DHT22;18965;52.242;20.886;2023-03-12T01:04:12;1.20;78.10
32524;DHT22;18965;52.242;20.886;2023-03-12T01:06:37;1.20;78.10
32524;DHT22;18965;52.242;20.886;2023-03-12T01:09:05;1.60;78.40
32524;DHT22;18965;52.242;20.886;2023-03-12T01:11:32;1.30;77.90
32524;DHT22;18965;52.242;20.886;2023-03-12T01:13:59;1.40;78.00
32524;DHT22;18965;52.242;20.886;2023-03-12T01:16:26;1.40;78.00
32524;DHT22;18965;52.242;20.886;2023-03-12T01:18:55;1.40;78.00
32524;DHT22;18965;52.242;20.886;2023-03-12T01:21:20;1.40;78.20
32524;DHT22;18965;52.242;20.886;2023-03-12T01:23:46;1.50;78.00
32524;DHT22;18965;52.242;20.886;2023-03-12T01:26:12;1.50;78.00
32524;DHT22;18965;52.242;20.886;2023-03-12T01:28:38;1.50;78.00
32524;DHT22;18965;52.242;20.886;2023-03-12T01:31:12;1.50;77.80
32524;DHT22;18965;52.242;20.886;2023-03-12T01:33:38;1.60;77.80
32524;DHT22;18965;52.242;20.886;2023-03-12T01:36:04;1.60;77.90
32524;DHT22;18965;52.242;20.886;2023-03-12T01:38:30;1.60;78.00
32524;DHT22;18965;52.242;20.886;2023-03-12T01:40:56;1.60;78.10
32524;DHT22;18965;52.242;20.886;2023-03-12T01:43:32;1.70;78.10
32524;DHT22;18965;52.242;20.886;2023-03-12T01:48:35;1.80;78.10
32524;DHT22;18965;52.242;20.886;2023-03-12T01:51:02;1.80;78.00
32524;DHT22;18965;52.242;20.886;2023-03-12T01:53:29;1.80;77.90
32524;DHT22;18965;52.242;20.886;2023-03-12T01:55:57;1.80;77.80
32524;DHT22;18965;52.242;20.886;2023-03-12T01:58:24;1.90;77.90
32524;DHT22;18965;52.242;20.886;2023-03-12T02:00:51;2.00;77.90
32524;DHT22;18965;52.242;20.886;2023-03-12T02:03:17;2.00;77.90
32524;DHT22;18965;52.242;20.886;2023-03-12T02:05:52;2.00;77.80
32524;DHT22;18965;52.242;20.886;2023-03-12T02:08:19;2.00;77.90
32524;DHT22;18965;52.242;20.886;2023-03-12T02:10:46;2.10;77.70
32524;DHT22;18965;52.242;20.886;2023-03-12T02:13:12;2.10;77.70
32524;DHT22;18965;52.242;20.886;2023-03-12T02:15:38;2.10;77.70
32524;DHT22;18965;52.242;20.886;2023-03-12T02:18:07;2.10;77.60
32524;DHT22;18965;52.242;20.886;2023-03-12T02:23:20;2.10;77.30
32524;DHT22;18965;52.242;20.886;2023-03-12T02:25:50;2.10;77.20
32524;DHT22;18965;52.242;20.886;2023-03-12T02:28:19;2.10;77.40
32524;DHT22;18965;52.242;20.886;2023-03-12T02:30:48;2.00;77.30
32524;DHT22;18965;52.242;20.886;2023-03-12T02:33:14;2.00;77.50
32524;DHT22;18965;52.242;20.886;2023-03-12T02:35:41;2.00;77.50
32524;DHT22;18965;52.242;20.886;2023-03-12T02:40:58;2.10;77.70
32524;DHT22;18965;52.242;20.886;2023-03-12T02:43:25;2.00;77.50
32524;DHT22;18965;52.242;20.886;2023-03-12T02:45:50;2.00;77.30
32524;DHT22;18965;52.242;20.886;2023-03-12T02:48:16;2.00;77.40
32524;DHT22;18965;52.242;20.886;2023-03-12T02:50:42;2.00;77.50
32524;DHT22;18965;52.242;20.886;2023-03-12T02:53:07;2.00;77.50
32524;DHT22;18965;52.242;20.886;2023-03-12T02:55:33;2.00;77.70
32524;DHT22;18965;52.242;20.886;2023-03-12T02:57:59;2.00;77.60
32524;DHT22;18965;52.242;20.886;2023-03-12T03:00:24;2.00;77.50
32524;DHT22;18965;52.242;20.886;2023-03-12T03:02:50;2.00;77.60
32524;DHT22;18965;52.242;20.886;2023-03-12T03:05:16;2.00;77.70
32524;DHT22;18965;52.242;20.886;2023-03-12T03:07:42;2.00;77.90
32524;DHT22;18965;52.242;20.886;2023-03-12T03:10:08;2.10;77.80
32524;DHT22;18965;52.242;20.886;2023-03-12T03:12:35;2.10;77.90
32524;DHT22;18965;52.242;20.886;2023-03-12T03:15:01;2.10;78.40
32524;DHT22;18965;52.242;20.886;2023-03-12T03:17:27;2.10;77.60
32524;DHT22;18965;52.242;20.886;2023-03-12T03:19:53;2.10;77.60
32524;DHT22;18965;52.242;20.886;2023-03-12T03:22:20;2.20;77.90
32524;DHT22;18965;52.242;20.886;2023-03-12T03:24:46;2.10;77.80
32524;DHT22;18965;52.242;20.886;2023-03-12T03:27:13;2.20;77.70
32524;DHT22;18965;52.242;20.886;2023-03-12T03:29:38;2.20;77.80
32524;DHT22;18965;52.242;20.886;2023-03-12T03:32:04;2.30;77.70
32524;DHT22;18965;52.242;20.886;2023-03-12T03:34:30;2.30;77.60
32524;DHT22;18965;52.242;20.886;2023-03-12T03:36:56;2.30;77.50
32524;DHT22;18965;52.242;20.886;2023-03-12T03:39:21;2.30;77.30
32524;DHT22;18965;52.242;20.886;2023-03-12T03:41:47;2.30;77.20
32524;DHT22;18965;52.242;20.886;2023-03-12T03:44:13;2.40;77.20
32524;DHT22;18965;52.242;20.886;2023-03-12T03:46:39;2.40;77.20
32524;DHT22;18965;52.242;20.886;2023-03-12T03:49:05;2.40;77.10
32524;DHT22;18965;52.242;20.886;2023-03-12T03:51:31;2.40;77.10
32524;DHT22;18965;52.242;20.886;2023-03-12T03:53:58;2.40;77.10
32524;DHT22;18965;52.242;20.886;2023-03-12T03:56:25;2.40;77.10
32524;DHT22;18965;52.242;20.886;2023-03-12T03:58:51;2.40;77.10
32524;DHT22;18965;52.242;20.886;2023-03-12T04:01:16;2.50;77.10
32524;DHT22;18965;52.242;20.886;2023-03-12T04:03:42;2.40;77.00
32524;DHT22;18965;52.242;20.886;2023-03-12T04:06:08;2.40;77.00
32524;DHT22;18965;52.242;20.886;2023-03-12T04:08:36;2.50;77.10
32524;DHT22;18965;52.242;20.886;2023-03-12T04:11:07;2.50;77.10
32524;DHT22;18965;52.242;20.886;2023-03-12T04:13:33;2.50;77.20
32524;DHT22;18965;52.242;20.886;2023-03-12T04:15:59;2.50;77.10
32524;DHT22;18965;52.242;20.886;2023-03-12T04:18:24;2.50;77.10
32524;DHT22;18965;52.242;20.886;2023-03-12T04:20:50;2.50;77.10
32524;DHT22;18965;52.242;20.886;2023-03-12T04:23:16;2.50;77.20
32524;DHT22;18965;52.242;20.886;2023-03-12T04:25:41;2.50;77.10
32524;DHT22;18965;52.242;20.886;2023-03-12T04:28:07;2.50;77.10
32524;DHT22;18965;52.242;20.886;2023-03-12T04:30:33;2.60;77.30
32524;DHT22;18965;52.242;20.886;2023-03-12T04:32:59;2.60;77.30
32524;DHT22;18965;52.242;20.886;2023-03-12T04:35:25;2.60;77.30
32524;DHT22;18965;52.242;20.886;2023-03-12T04:37:51;2.60;77.20
32524;DHT22;18965;52.242;20.886;2023-03-12T04:40:16;2.70;77.30
32524;DHT22;18965;52.242;20.886;2023-03-12T04:42:43;2.70;77.30
32524;DHT22;18965;52.242;20.886;2023-03-12T04:45:10;2.70;77.30
32524;DHT22;18965;52.242;20.886;2023-03-12T04:47:36;2.70;77.20
32524;DHT22;18965;52.242;20.886;2023-03-12T04:50:02;2.70;77.20
32524;DHT22;18965;52.242;20.886;2023-03-12T04:52:28;2.70;77.20
32524;DHT22;18965;52.242;20.886;2023-03-12T04:54:53;2.80;77.20
32524;DHT22;18965;52.242;20.886;2023-03-12T04:57:19;2.80;77.20
32524;DHT22;18965;52.242;20.886;2023-03-12T04:59:45;2.80;77.10
32524;DHT22;18965;52.242;20.886;2023-03-12T05:02:11;2.80;77.10
32524;DHT22;18965;52.242;20.886;2023-03-12T05:04:37;2.80;77.00
32524;DHT22;18965;52.242;20.886;2023-03-12T05:07:02;2.80;77.10
32524;DHT22;18965;52.242;20.886;2023-03-12T05:09:28;2.80;77.10
32524;DHT22;18965;52.242;20.886;2023-03-12T05:11:54;2.80;77.10
32524;DHT22;18965;52.242;20.886;2023-03-12T05:14:20;2.80;77.20
32524;DHT22;18965;52.242;20.886;2023-03-12T05:16:45;2.90;77.10
32524;DHT22;18965;52.242;20.886;2023-03-12T05:19:11;2.90;77.00
32524;DHT22;18965;52.242;20.886;2023-03-12T05:21:39;2.90;77.10
32524;DHT22;18965;52.242;20.886;2023-03-12T05:24:07;2.90;77.00
32524;DHT22;18965;52.242;20.886;2023-03-12T05:26:33;2.90;77.10
32524;DHT22;18965;52.242;20.886;2023-03-12T05:28:59;2.90;77.10
32524;DHT22;18965;52.242;20.886;2023-03-12T05:31:27;2.90;77.10
32524;DHT22;18965;52.242;20.886;2023-03-12T05:33:53;2.90;77.10
32524;DHT22;18965;52.242;20.886;2023-03-12T05:36:19;2.90;77.00
32524;DHT22;18965;52.242;20.886;2023-03-12T05:38:45;3.00;77.10
32524;DHT22;18965;52.242;20.886;2023-03-12T05:41:20;3.00;77.00
32524;DHT22;18965;52.242;20.886;2023-03-12T05:43:46;3.00;77.00
32524;DHT22;18965;52.242;20.886;2023-03-12T05:46:12;3.00;77.70
32524;DHT22;18965;52.242;20.886;2023-03-12T05:48:38;3.00;77.00
32524;DHT22;18965;52.242;20.886;2023-03-12T05:51:03;3.00;77.10
32524;DHT22;18965;52.242;20.886;2023-03-12T05:53:29;3.00;77.00
32524;DHT22;18965;52.242;20.886;2023-03-12T05:56:00;3.10;77.10
32524;DHT22;18965;52.242;20.886;2023-03-12T05:58:26;3.10;77.00
32524;DHT22;18965;52.242;20.886;2023-03-12T06:00:52;3.10;76.80
32524;DHT22;18965;52.242;20.886;2023-03-12T06:03:17;3.10;76.70
32524;DHT22;18965;52.242;20.886;2023-03-12T06:05:43;3.10;76.80
32524;DHT22;18965;52.242;20.886;2023-03-12T06:08:10;3.20;76.90
32524;DHT22;18965;52.242;20.886;2023-03-12T06:10:37;3.20;76.80
32524;DHT22;18965;52.242;20.886;2023-03-12T06:13:03;3.20;76.70
32524;DHT22;18965;52.242;20.886;2023-03-12T06:15:30;3.20;76.60
32524;DHT22;18965;52.242;20.886;2023-03-12T06:17:56;3.20;76.50
32524;DHT22;18965;52.242;20.886;2023-03-12T06:20:22;3.20;76.60
32524;DHT22;18965;52.242;20.886;2023-03-12T06:22:48;3.20;76.60
32524;DHT22;18965;52.242;20.886;2023-03-12T06:25:14;3.20;76.60
32524;DHT22;18965;52.242;20.886;2023-03-12T06:27:39;3.40;76.80
32524;DHT22;18965;52.242;20.886;2023-03-12T06:30:06;3.40;76.50
32524;DHT22;18965;52.242;20.886;2023-03-12T06:32:32;3.60;76.40
32524;DHT22;18965;52.242;20.886;2023-03-12T06:34:58;3.70;76.20
32524;DHT22;18965;52.242;20.886;2023-03-12T06:37:25;3.90;75.90
32524;DHT22;18965;52.242;20.886;2023-03-12T06:39:51;3.90;75.30
32524;DHT22;18965;52.242;20.886;2023-03-12T06:42:17;3.90;75.10
32524;DHT22;18965;52.242;20.886;2023-03-12T06:44:45;3.90;75.00
32524;DHT22;18965;52.242;20.886;2023-03-12T06:47:12;3.90;75.00
32524;DHT22;18965;52.242;20.886;2023-03-12T06:49:37;3.80;74.80
32524;DHT22;18965;52.242;20.886;2023-03-12T06:52:04;3.80;75.00
32524;DHT22;18965;52.242;20.886;2023-03-12T06:54:30;3.80;75.10
32524;DHT22;18965;52.242;20.886;2023-03-12T06:56:56;3.80;75.20
32524;DHT22;18965;52.242;20.886;2023-03-12T06:59:24;3.80;75.20
32524;DHT22;18965;52.242;20.886;2023-03-12T07:01:49;3.80;75.10
32524;DHT22;18965;52.242;20.886;2023-03-12T07:04:15;3.90;75.30
32524;DHT22;18965;52.242;20.886;2023-03-12T07:06:42;3.90;75.50
32524;DHT22;18965;52.242;20.886;2023-03-12T07:09:08;3.90;75.20
32524;DHT22;18965;52.242;20.886;2023-03-12T07:11:34;4.00;75.00
32524;DHT22;18965;52.242;20.886;2023-03-12T07:14:00;4.00;75.00
32524;DHT22;18965;52.242;20.886;2023-03-12T07:16:32;4.10;74.80
32524;DHT22;18965;52.242;20.886;2023-03-12T07:18:59;4.10;74.60
32524;DHT22;18965;52.242;20.886;2023-03-12T07:21:27;4.10;74.60
32524;DHT22;18965;52.242;20.886;2023-03-12T07:23:53;4.10;74.40
32524;DHT22;18965;52.242;20.886;2023-03-12T07:26:19;4.10;74.60
32524;DHT22;18965;52.242;20.886;2023-03-12T07:28:45;4.10;74.50
32524;DHT22;18965;52.242;20.886;2023-03-12T07:31:11;4.10;74.40
32524;DHT22;18965;52.242;20.886;2023-03-12T07:33:38;4.20;74.50
32524;DHT22;18965;52.242;20.886;2023-03-12T07:36:04;4.20;74.60
32524;DHT22;18965;52.242;20.886;2023-03-12T07:38:30;4.30;74.20
32524;DHT22;18965;52.242;20.886;2023-03-12T07:40:57;4.50;74.20
32524;DHT22;18965;52.242;20.886;2023-03-12T07:43:25;4.60;73.90
32524;DHT22;18965;52.242;20.886;2023-03-12T07:45:51;4.70;73.80
32524;DHT22;18965;52.242;20.886;2023-03-12T07:48:18;4.90;74.10
32524;DHT22;18965;52.242;20.886;2023-03-12T07:50:46;5.00;72.10
32524;DHT22;18965;52.242;20.886;2023-03-12T07:53:12;5.00;72.00
32524;DHT22;18965;52.242;20.886;2023-03-12T07:55:37;5.00;72.10
32524;DHT22;18965;52.242;20.886;2023-03-12T07:58:03;5.10;71.70
32524;DHT22;18965;52.242;20.886;2023-03-12T08:00:29;5.20;71.40
32524;DHT22;18965;52.242;20.886;2023-03-12T08:02:55;5.30;71.00
32524;DHT22;18965;52.242;20.886;2023-03-12T08:05:22;5.50;69.40
32524;DHT22;18965;52.242;20.886;2023-03-12T08:07:50;5.60;70.30
32524;DHT22;18965;52.242;20.886;2023-03-12T08:10:17;5.60;68.30
32524;DHT22;18965;52.242;20.886;2023-03-12T08:12:43;5.60;68.10
32524;DHT22;18965;52.242;20.886;2023-03-12T08:15:10;5.60;69.10
32524;DHT22;18965;52.242;20.886;2023-03-12T08:17:37;5.80;69.60
32524;DHT22;18965;52.242;20.886;2023-03-12T08:20:03;5.80;67.50
32524;DHT22;18965;52.242;20.886;2023-03-12T08:22:30;5.90;68.00
32524;DHT22;18965;52.242;20.886;2023-03-12T08:24:56;5.90;67.20
32524;DHT22;18965;52.242;20.886;2023-03-12T08:27:21;6.10;67.30
32524;DHT22;18965;52.242;20.886;2023-03-12T08:29:47;6.10;66.50
32524;DHT22;18965;52.242;20.886;2023-03-12T08:32:13;6.20;66.10
32524;DHT22;18965;52.242;20.886;2023-03-12T08:34:39;6.10;65.60
32524;DHT22;18965;52.242;20.886;2023-03-12T08:37:04;6.10;65.20
32524;DHT22;18965;52.242;20.886;2023-03-12T08:39:31;6.10;64.80
32524;DHT22;18965;52.242;20.886;2023-03-12T08:41:57;6.10;65.00
32524;DHT22;18965;52.242;20.886;2023-03-12T08:44:23;6.10;64.80
32524;DHT22;18965;52.242;20.886;2023-03-12T08:46:50;6.10;64.90
32524;DHT22;18965;52.242;20.886;2023-03-12T08:49:17;6.20;65.30
32524;DHT22;18965;52.242;20.886;2023-03-12T08:51:43;6.20;65.20
32524;DHT22;18965;52.242;20.886;2023-03-12T08:54:08;6.30;64.70
32524;DHT22;18965;52.242;20.886;2023-03-12T08:56:34;6.40;64.10
32524;DHT22;18965;52.242;20.886;2023-03-12T08:59:07;6.40;63.30
32524;DHT22;18965;52.242;20.886;2023-03-12T09:01:33;6.50;64.10
32524;DHT22;18965;52.242;20.886;2023-03-12T09:03:58;6.60;63.00
32524;DHT22;18965;52.242;20.886;2023-03-12T09:06:24;6.60;62.30
32524;DHT22;18965;52.242;20.886;2023-03-12T09:08:50;6.60;62.80
32524;DHT22;18965;52.242;20.886;2023-03-12T09:11:16;6.60;62.20
32524;DHT22;18965;52.242;20.886;2023-03-12T09:13:43;6.50;60.80
32524;DHT22;18965;52.242;20.886;2023-03-12T09:16:08;6.50;60.80
32524;DHT22;18965;52.242;20.886;2023-03-12T09:18:34;6.50;61.50
32524;DHT22;18965;52.242;20.886;2023-03-12T09:21:01;6.50;60.30
32524;DHT22;18965;52.242;20.886;2023-03-12T09:23:27;6.60;60.90
32524;DHT22;18965;52.242;20.886;2023-03-12T09:25:53;6.60;60.90
32524;DHT22;18965;52.242;20.886;2023-03-12T09:28:20;6.60;61.00
32524;DHT22;18965;52.242;20.886;2023-03-12T09:30:46;6.50;60.80
32524;DHT22;18965;52.242;20.886;2023-03-12T09:33:12;6.50;60.90
32524;DHT22;18965;52.242;20.886;2023-03-12T09:35:40;6.50;61.20
32524;DHT22;18965;52.242;20.886;2023-03-12T09:38:16;6.60;61.20
32524;DHT22;18965;52.242;20.886;2023-03-12T09:40:45;6.70;60.90
32524;DHT22;18965;52.242;20.886;2023-03-12T09:43:33;6.80;61.00
32524;DHT22;18965;52.242;20.886;2023-03-12T09:46:01;6.80;58.40
32524;DHT22;18965;52.242;20.886;2023-03-12T09:48:33;6.90;59.00
32524;DHT22;18965;52.242;20.886;2023-03-12T09:51:04;6.90;58.50
32524;DHT22;18965;52.242;20.886;2023-03-12T09:53:38;7.00;58.60
32524;DHT22;18965;52.242;20.886;2023-03-12T09:56:11;7.00;58.70
32524;DHT22;18965;52.242;20.886;2023-03-12T09:58:38;6.90;57.70
32524;DHT22;18965;52.242;20.886;2023-03-12T10:01:34;6.80;57.70
32524;DHT22;18965;52.242;20.886;2023-03-12T10:20:40;6.20;58.70
32524;DHT22;18965;52.242;20.886;2023-03-12T10:23:20;6.10;58.60
32524;DHT22;18965;52.242;20.886;2023-03-12T10:25:59;6.00;58.90
32524;DHT22;18965;52.242;20.886;2023-03-12T10:28:38;6.00;59.30
32524;DHT22;18965;52.242;20.886;2023-03-12T10:31:17;6.00;59.50
32524;DHT22;18965;52.242;20.886;2023-03-12T10:33:51;6.10;59.70
32524;DHT22;18965;52.242;20.886;2023-03-12T10:36:39;6.30;59.70
32524;DHT22;18965;52.242;20.886;2023-03-12T10:39:16;6.40;59.50
32524;DHT22;18965;52.242;20.886;2023-03-12T10:41:44;6.50;58.60
32524;DHT22;18965;52.242;20.886;2023-03-12T10:44:19;6.60;58.70
32524;DHT22;18965;52.242;20.886;2023-03-12T10:47:00;6.60;58.50
32524;DHT22;18965;52.242;20.886;2023-03-12T10:49:32;6.60;58.50
32524;DHT22;18965;52.242;20.886;2023-03-12T10:52:18;6.60;58.90
32524;DHT22;18965;52.242;20.886;2023-03-12T10:54:48;6.70;58.70
32524;DHT22;18965;52.242;20.886;2023-03-12T10:57:17;6.80;58.60
32524;DHT22;18965;52.242;20.886;2023-03-12T10:59:46;6.90;58.70
32524;DHT22;18965;52.242;20.886;2023-03-12T11:04:50;6.80;58.10
32524;DHT22;18965;52.242;20.886;2023-03-12T11:07:20;6.70;57.10
32524;DHT22;18965;52.242;20.886;2023-03-12T11:12:32;6.50;56.20
32524;DHT22;18965;52.242;20.886;2023-03-12T11:17:45;6.30;56.60
32524;DHT22;18965;52.242;20.886;2023-03-12T11:20:37;6.20;56.90
32524;DHT22;18965;52.242;20.886;2023-03-12T11:23:21;6.20;56.30
32524;DHT22;18965;52.242;20.886;2023-03-12T11:25:56;6.10;56.80
32524;DHT22;18965;52.242;20.886;2023-03-12T11:28:27;6.10;56.80
32524;DHT22;18965;52.242;20.886;2023-03-12T11:30:56;6.00;56.80
32524;DHT22;18965;52.242;20.886;2023-03-12T11:33:22;5.90;56.50
32524;DHT22;18965;52.242;20.886;2023-03-12T11:36:07;6.00;56.60
32524;DHT22;18965;52.242;20.886;2023-03-12T11:38:49;6.00;56.40
32524;DHT22;18965;52.242;20.886;2023-03-12T11:44:00;6.10;56.00
32524;DHT22;18965;52.242;20.886;2023-03-12T11:51:41;6.30;55.90
32524;DHT22;18965;52.242;20.886;2023-03-12T12:06:35;6.30;54.90
32524;DHT22;18965;52.242;20.886;2023-03-12T12:10:10;6.20;55.00
32524;DHT22;18965;52.242;20.886;2023-03-12T12:15:27;6.30;54.70
32524;DHT22;18965;52.242;20.886;2023-03-12T12:21:18;6.40;54.80
32524;DHT22;18965;52.242;20.886;2023-03-12T12:27:32;6.50;55.40
32524;DHT22;18965;52.242;20.886;2023-03-12T12:32:17;6.60;55.60
32524;DHT22;18965;52.242;20.886;2023-03-12T12:40:30;7.00;55.40
32524;DHT22;18965;52.242;20.886;2023-03-12T12:43:04;7.00;55.10
32524;DHT22;18965;52.242;20.886;2023-03-12T12:45:31;7.10;55.30
32524;DHT22;18965;52.242;20.886;2023-03-12T12:48:07;7.20;54.60
32524;DHT22;18965;52.242;20.886;2023-03-12T12:50:37;7.20;54.70
32524;DHT22;18965;52.242;20.886;2023-03-12T12:53:14;7.20;54.40
32524;DHT22;18965;52.242;20.886;2023-03-12T12:58:39;7.10;54.10
32524;DHT22;18965;52.242;20.886;2023-03-12T13:01:07;7.20;54.90
32524;DHT22;18965;52.242;20.886;2023-03-12T13:03:34;7.20;54.20
32524;DHT22;18965;52.242;20.886;2023-03-12T13:06:04;7.20;54.00
32524;DHT22;18965;52.242;20.886;2023-03-12T13:09:19;7.30;54.80
32524;DHT22;18965;52.242;20.886;2023-03-12T13:11:39;7.40;53.90
32524;DHT22;18965;52.242;20.886;2023-03-12T13:16:39;7.50;54.00
32524;DHT22;18965;52.242;20.886;2023-03-12T13:24:34;7.50;52.40
32524;DHT22;18965;52.242;20.886;2023-03-12T13:29:42;7.70;51.70
32524;DHT22;18965;52.242;20.886;2023-03-12T13:34:55;7.80;51.80
32524;DHT22;18965;52.242;20.886;2023-03-12T13:43:09;7.80;52.10
32524;DHT22;18965;52.242;20.886;2023-03-12T13:48:28;7.70;51.70
32524;DHT22;18965;52.242;20.886;2023-03-12T13:50:57;7.80;51.10
32524;DHT22;18965;52.242;20.886;2023-03-12T13:53:32;7.80;51.70
32524;DHT22;18965;52.242;20.886;2023-03-12T13:56:19;7.70;51.00
32524;DHT22;18965;52.242;20.886;2023-03-12T13:59:00;7.70;51.20
32524;DHT22;18965;52.242;20.886;2023-03-12T14:01:35;7.60;51.70
32524;DHT22;18965;52.242;20.886;2023-03-12T14:04:06;7.60;52.20
32524;DHT22;18965;52.242;20.886;2023-03-12T14:12:03;7.50;52.40
32524;DHT22;18965;52.242;20.886;2023-03-12T14:17:31;7.50;51.80
32524;DHT22;18965;52.242;20.886;2023-03-12T14:20:03;7.40;51.40
32524;DHT22;18965;52.242;20.886;2023-03-12T14:22:35;7.30;52.10
32524;DHT22;18965;52.242;20.886;2023-03-12T14:25:11;7.30;52.40
32524;DHT22;18965;52.242;20.886;2023-03-12T14:27:38;7.30;52.40
32524;DHT22;18965;52.242;20.886;2023-03-12T14:30:10;7.40;52.70
32524;DHT22;18965;52.242;20.886;2023-03-12T14:32:37;7.40;52.50
32524;DHT22;18965;52.242;20.886;2023-03-12T14:40:37;7.00;51.20
32524;DHT22;18965;52.242;20.886;2023-03-12T14:46:02;6.70;51.80
32524;DHT22;18965;52.242;20.886;2023-03-12T14:48:35;6.60;52.20
32524;DHT22;18965;52.242;20.886;2023-03-12T14:51:03;6.50;52.60
32524;DHT22;18965;52.242;20.886;2023-03-12T14:53:32;6.40;53.10
32524;DHT22;18965;52.242;20.886;2023-03-12T14:55:59;6.30;53.50
32524;DHT22;18965;52.242;20.886;2023-03-12T14:58:25;6.20;53.90
32524;DHT22;18965;52.242;20.886;2023-03-12T15:00:57;6.20;54.20
32524;DHT22;18965;52.242;20.886;2023-03-12T15:03:24;6.10;54.20
32524;DHT22;18965;52.242;20.886;2023-03-12T15:05:51;6.10;54.30
32524;DHT22;18965;52.242;20.886;2023-03-12T15:08:17;6.10;54.30
32524;DHT22;18965;52.242;20.886;2023-03-12T15:10:55;6.00;54.40
32524;DHT22;18965;52.242;20.886;2023-03-12T15:13:23;6.00;54.50
32524;DHT22;18965;52.242;20.886;2023-03-12T15:15:51;5.90;54.70
32524;DHT22;18965;52.242;20.886;2023-03-12T15:18:29;5.90;54.70
32524;DHT22;18965;52.242;20.886;2023-03-12T15:20:57;5.90;55.10
32524;DHT22;18965;52.242;20.886;2023-03-12T15:23:25;5.80;55.30
32524;DHT22;18965;52.242;20.886;2023-03-12T15:28:59;5.80;55.80
32524;DHT22;18965;52.242;20.886;2023-03-12T15:31:26;5.80;56.00
32524;DHT22;18965;52.242;20.886;2023-03-12T15:34:03;5.80;56.00
32524;DHT22;18965;52.242;20.886;2023-03-12T15:36:31;5.80;56.00
32524;DHT22;18965;52.242;20.886;2023-03-12T15:39:01;5.90;56.10
32524;DHT22;18965;52.242;20.886;2023-03-12T15:41:47;5.80;56.00
32524;DHT22;18965;52.242;20.886;2023-03-12T15:46:51;5.90;56.20
32524;DHT22;18965;52.242;20.886;2023-03-12T15:49:29;5.90;56.20
32524;DHT22;18965;52.242;20.886;2023-03-12T15:54:26;5.90;56.40
32524;DHT22;18965;52.242;20.886;2023-03-12T15:56:52;5.90;56.20
32524;DHT22;18965;52.242;20.886;2023-03-12T15:59:26;5.90;56.40
32524;DHT22;18965;52.242;20.886;2023-03-12T16:01:54;5.90;56.50
32524;DHT22;18965;52.242;20.886;2023-03-12T16:04:21;5.90;56.50
32524;DHT22;18965;52.242;20.886;2023-03-12T16:06:48;5.90;56.70
32524;DHT22;18965;52.242;20.886;2023-03-12T16:09:20;5.90;56.80
32524;DHT22;18965;52.242;20.886;2023-03-12T16:11:47;5.80;56.90
32524;DHT22;18965;52.242;20.886;2023-03-12T16:14:34;5.80;57.10
32524;DHT22;18965;52.242;20.886;2023-03-12T16:17:01;5.80;58.00
32524;DHT22;18965;52.242;20.886;2023-03-12T16:19:28;5.80;57.40
32524;DHT22;18965;52.242;20.886;2023-03-12T16:21:54;5.70;57.60
32524;DHT22;18965;52.242;20.886;2023-03-12T16:24:20;5.70;57.70
32524;DHT22;18965;52.242;20.886;2023-03-12T16:26:52;5.70;57.90
32524;DHT22;18965;52.242;20.886;2023-03-12T16:29:19;5.70;58.20
32524;DHT22;18965;52.242;20.886;2023-03-12T16:31:54;5.60;58.30
32524;DHT22;18965;52.242;20.886;2023-03-12T16:34:20;5.60;58.50
32524;DHT22;18965;52.242;20.886;2023-03-12T16:36:45;5.60;58.60
32524;DHT22;18965;52.242;20.886;2023-03-12T16:39:11;5.50;58.70
32524;DHT22;18965;52.242;20.886;2023-03-12T16:41:37;5.50;58.80
32524;DHT22;18965;52.242;20.886;2023-03-12T16:44:05;5.50;58.90
32524;DHT22;18965;52.242;20.886;2023-03-12T16:46:31;5.40;59.00
32524;DHT22;18965;52.242;20.886;2023-03-12T16:48:57;5.40;59.10
32524;DHT22;18965;52.242;20.886;2023-03-12T16:51:24;5.30;59.20
32524;DHT22;18965;52.242;20.886;2023-03-12T16:53:50;5.20;59.30
32524;DHT22;18965;52.242;20.886;2023-03-12T16:56:21;5.20;59.40
32524;DHT22;18965;52.242;20.886;2023-03-12T16:58:48;5.10;59.60
32524;DHT22;18965;52.242;20.886;2023-03-12T17:01:16;5.10;59.70
32524;DHT22;18965;52.242;20.886;2023-03-12T17:03:45;5.00;59.90
32524;DHT22;18965;52.242;20.886;2023-03-12T17:06:33;5.00;60.10
32524;DHT22;18965;52.242;20.886;2023-03-12T17:08:59;4.90;60.40
32524;DHT22;18965;52.242;20.886;2023-03-12T17:11:29;4.90;60.60
32524;DHT22;18965;52.242;20.886;2023-03-12T17:13:59;4.80;60.80
32524;DHT22;18965;52.242;20.886;2023-03-12T17:16:25;4.80;61.10
32524;DHT22;18965;52.242;20.886;2023-03-12T17:18:51;4.80;61.40
32524;DHT22;18965;52.242;20.886;2023-03-12T17:21:18;4.70;61.50
32524;DHT22;18965;52.242;20.886;2023-03-12T17:23:46;4.70;61.70
32524;DHT22;18965;52.242;20.886;2023-03-12T17:26:12;4.70;61.90
32524;DHT22;18965;52.242;20.886;2023-03-12T17:28:38;4.60;62.00
32524;DHT22;18965;52.242;20.886;2023-03-12T17:31:05;4.60;62.10
32524;DHT22;18965;52.242;20.886;2023-03-12T17:33:30;4.60;62.20
32524;DHT22;18965;52.242;20.886;2023-03-12T17:36:04;4.60;62.30
32524;DHT22;18965;52.242;20.886;2023-03-12T17:38:31;4.60;62.40